sensor_id;sensor_type;location;lat;lon;timestamp;P1;P2;P0
78316;PMS7003;67572;50.930;18.276;2023-04-25T00:00:15;10.50;6.50;6.00
78316;PMS7003;67572;50.930;18.276;2023-04-25T00:03:21;12.25;12.25;11.25
78316;PMS7003;67572;50.930;18.276;2023-04-25T00:06:26;12.00;10.00;7.50
78316;PMS7003;67572;50.930;18.276;2023-04-25T00:09:31;14.00;10.50;9.50
78316;PMS7003;67572;50.930;18.276;2023-04-25T00:12:35;10.50;9.25;8.00
78316;PMS7003;67572;50.930;18.276;2023-04-25T00:15:40;11.00;7.75;5.75
78316;PMS7003;67572;50.930;18.276;2023-04-25T00:18:44;8.50;8.50;7.00
78316;PMS7003;67572;50.930;18.276;2023-04-25T00:21:53;7.75;3.75;3.00
78316;PMS7003;67572;50.930;18.276;2023-04-25T00:24:57;7.00;7.00;6.00
78316;PMS7003;67572;50.930;18.276;2023-04-25T00:28:02;11.00;10.00;8.00
78316;PMS7003;67572;50.930;18.276;2023-04-25T00:31:07;7.00;6.00;4.50
78316;PMS7003;67572;50.930;18.276;2023-04-25T00:34:11;7.00;4.25;3.25
78316;PMS7003;67572;50.930;18.276;2023-04-25T00:37:15;6.50;6.50;6.00
78316;PMS7003;67572;50.930;18.276;2023-04-25T00:40:20;1.50;1.50;0.25
78316;PMS7003;67572;50.930;18.276;2023-04-25T00:43:24;4.00;4.00;3.00
78316;PMS7003;67572;50.930;18.276;2023-04-25T00:46:30;4.00;4.00;3.25
78316;PMS7003;67572;50.930;18.276;2023-04-25T00:49:34;1.50;1.50;1.00
78316;PMS7003;67572;50.930;18.276;2023-04-25T00:52:37;3.50;3.50;3.50
78316;PMS7003;67572;50.930;18.276;2023-04-25T00:55:43;1.00;1.00;1.00
78316;PMS7003;67572;50.930;18.276;2023-04-25T00:58:47;2.50;2.50;2.50
78316;PMS7003;67572;50.930;18.276;2023-04-25T01:01:52;2.00;0.00;0.00
78316;PMS7003;67572;50.930;18.276;2023-04-25T01:04:56;2.00;2.00;1.00
78316;PMS7003;67572;50.930;18.276;2023-04-25T01:08:00;3.25;1.00;0.50
78316;PMS7003;67572;50.930;18.276;2023-04-25T01:11:04;1.00;1.00;0.00
78316;PMS7003;67572;50.930;18.276;2023-04-25T01:14:08;0.25;0.25;0.25
78316;PMS7003;67572;50.930;18.276;2023-04-25T01:17:13;3.00;1.00;0.00
78316;PMS7003;67572;50.930;18.276;2023-04-25T01:20:17;0.00;0.00;0.00
78316;PMS7003;67572;50.930;18.276;2023-04-25T01:23:25;1.00;1.00;0.00
78316;PMS7003;67572;50.930;18.276;2023-04-25T01:26:29;1.00;1.00;0.00
78316;PMS7003;67572;50.930;18.276;2023-04-25T01:29:33;3.00;3.00;1.00
78316;PMS7003;67572;50.930;18.276;2023-04-25T01:32:40;1.50;1.00;1.00
78316;PMS7003;67572;50.930;18.276;2023-04-25T01:35:44;1.00;1.00;1.00
78316;PMS7003;67572;50.930;18.276;2023-04-25T01:38:50;0.00;0.00;0.00
78316;PMS7003;67572;50.930;18.276;2023-04-25T01:41:56;4.50;1.00;1.00
78316;PMS7003;67572;50.930;18.276;2023-04-25T01:45:00;1.00;1.00;0.00
78316;PMS7003;67572;50.930;18.276;2023-04-25T01:48:04;1.75;1.50;1.00
78316;PMS7003;67572;50.930;18.276;2023-04-25T01:51:08;0.00;0.00;0.00
78316;PMS7003;67572;50.930;18.276;2023-04-25T01:54:15;1.00;1.00;1.00
78316;PMS7003;67572;50.930;18.276;2023-04-25T01:57:18;1.00;1.00;0.00
78316;PMS7003;67572;50.930;18.276;2023-04-25T02:00:22;0.00;0.00;0.00
78316;PMS7003;67572;50.930;18.276;2023-04-25T02:03:26;0.25;0.25;0.25
78316;PMS7003;67572;50.930;18.276;2023-04-25T02:06:31;1.50;1.50;0.25
78316;PMS7003;67572;50.930;18.276;2023-04-25T02:09:36;4.25;3.00;1.50
78316;PMS7003;67572;50.930;18.276;2023-04-25T02:12:41;1.50;1.00;0.50
78316;PMS7003;67572;50.930;18.276;2023-04-25T02:15:56;2.00;1.00;1.00
78316;PMS7003;67572;50.930;18.276;2023-04-25T02:19:00;0.25;0.25;0.25
78316;PMS7003;67572;50.930;18.276;2023-04-25T02:22:04;0.25;0.25;0.25
78316;PMS7003;67572;50.930;18.276;2023-04-25T02:25:10;1.00;1.00;0.00
78316;PMS7003;67572;50.930;18.276;2023-04-25T02:28:15;0.00;0.00;0.00
78316;PMS7003;67572;50.930;18.276;2023-04-25T02:31:18;0.00;0.00;0.00
78316;PMS7003;67572;50.930;18.276;2023-04-25T02:34:22;2.00;0.00;0.00
78316;PMS7003;67572;50.930;18.276;2023-04-25T02:37:26;3.25;0.50;0.00
78316;PMS7003;67572;50.930;18.276;2023-04-25T02:40:31;0.00;0.00;0.00
78316;PMS7003;67572;50.930;18.276;2023-04-25T02:43:35;1.00;1.00;1.00
78316;PMS7003;67572;50.930;18.276;2023-04-25T02:46:38;1.00;1.00;0.00
78316;PMS7003;67572;50.930;18.276;2023-04-25T02:49:42;1.00;1.00;0.50
78316;PMS7003;67572;50.930;18.276;2023-04-25T02:52:47;1.00;0.00;0.00
78316;PMS7003;67572;50.930;18.276;2023-04-25T02:55:59;3.75;2.50;0.00
78316;PMS7003;67572;50.930;18.276;2023-04-25T02:59:02;1.00;1.00;0.00
78316;PMS7003;67572;50.930;18.276;2023-04-25T03:02:06;2.50;2.50;0.00
78316;PMS7003;67572;50.930;18.276;2023-04-25T03:05:10;0.00;0.00;0.00
78316;PMS7003;67572;50.930;18.276;2023-04-25T03:08:14;2.50;2.50;1.00
78316;PMS7003;67572;50.930;18.276;2023-04-25T03:11:19;0.25;0.25;0.00
78316;PMS7003;67572;50.930;18.276;2023-04-25T03:14:23;0.50;0.50;0.00
78316;PMS7003;67572;50.930;18.276;2023-04-25T03:17:26;2.75;0.75;0.00
78316;PMS7003;67572;50.930;18.276;2023-04-25T03:20:30;1.00;1.00;0.00
78316;PMS7003;67572;50.930;18.276;2023-04-25T03:23:33;3.00;1.00;0.00
78316;PMS7003;67572;50.930;18.276;2023-04-25T03:26:38;1.00;0.75;0.25
78316;PMS7003;67572;50.930;18.276;2023-04-25T03:29:42;3.75;1.00;0.00
78316;PMS7003;67572;50.930;18.276;2023-04-25T03:32:46;1.25;1.25;0.75
78316;PMS7003;67572;50.930;18.276;2023-04-25T03:35:51;0.00;0.00;0.00
78316;PMS7003;67572;50.930;18.276;2023-04-25T03:38:55;1.00;0.00;0.00
78316;PMS7003;67572;50.930;18.276;2023-04-25T03:42:01;3.00;1.00;0.00
78316;PMS7003;67572;50.930;18.276;2023-04-25T03:45:05;0.75;0.00;0.00
78316;PMS7003;67572;50.930;18.276;2023-04-25T03:48:10;0.00;0.00;0.00
78316;PMS7003;67572;50.930;18.276;2023-04-25T03:51:14;4.00;3.00;1.00
78316;PMS7003;67572;50.930;18.276;2023-04-25T03:54:19;2.25;1.00;1.00
78316;PMS7003;67572;50.930;18.276;2023-04-25T03:57:47;1.00;1.00;0.00
78316;PMS7003;67572;50.930;18.276;2023-04-25T04:00:51;2.50;2.50;1.00
78316;PMS7003;67572;50.930;18.276;2023-04-25T04:03:54;1.00;1.00;1.00
78316;PMS7003;67572;50.930;18.276;2023-04-25T04:07:00;1.00;1.00;1.00
78316;PMS7003;67572;50.930;18.276;2023-04-25T04:10:08;0.25;0.00;0.00
78316;PMS7003;67572;50.930;18.276;2023-04-25T04:13:15;0.75;0.00;0.00
78316;PMS7003;67572;50.930;18.276;2023-04-25T04:16:19;0.25;0.25;0.00
78316;PMS7003;67572;50.930;18.276;2023-04-25T04:19:23;1.00;1.00;0.50
78316;PMS7003;67572;50.930;18.276;2023-04-25T04:22:37;3.75;3.75;3.00
78316;PMS7003;67572;50.930;18.276;2023-04-25T04:25:44;1.00;1.00;1.00
78316;PMS7003;67572;50.930;18.276;2023-04-25T04:29:03;3.25;3.00;1.00
78316;PMS7003;67572;50.930;18.276;2023-04-25T04:32:15;1.00;1.00;0.25
78316;PMS7003;67572;50.930;18.276;2023-04-25T04:35:20;1.00;1.00;1.00
78316;PMS7003;67572;50.930;18.276;2023-04-25T04:38:25;2.50;1.00;1.00
78316;PMS7003;67572;50.930;18.276;2023-04-25T04:41:31;1.50;1.50;1.00
78316;PMS7003;67572;50.930;18.276;2023-04-25T04:44:55;1.50;1.50;1.00
78316;PMS7003;67572;50.930;18.276;2023-04-25T04:48:14;1.00;1.00;1.00
78316;PMS7003;67572;50.930;18.276;2023-04-25T04:51:36;4.00;3.75;3.00
78316;PMS7003;67572;50.930;18.276;2023-04-25T04:54:59;4.00;3.25;2.00
78316;PMS7003;67572;50.930;18.276;2023-04-25T04:58:31;3.25;3.25;1.50
78316;PMS7003;67572;50.930;18.276;2023-04-25T05:01:55;2.50;2.50;2.50
78316;PMS7003;67572;50.930;18.276;2023-04-25T05:05:17;0.25;0.00;0.00
78316;PMS7003;67572;50.930;18.276;2023-04-25T05:08:44;1.00;1.00;0.00
78316;PMS7003;67572;50.930;18.276;2023-04-25T05:12:11;3.00;3.00;1.00
78316;PMS7003;67572;50.930;18.276;2023-04-25T05:15:33;1.00;0.00;0.00
78316;PMS7003;67572;50.930;18.276;2023-04-25T05:18:54;3.50;3.00;1.50
78316;PMS7003;67572;50.930;18.276;2023-04-25T05:22:27;3.75;1.00;0.50
78316;PMS7003;67572;50.930;18.276;2023-04-25T05:25:55;3.00;1.00;0.75
78316;PMS7003;67572;50.930;18.276;2023-04-25T05:29:19;1.50;1.50;1.00
78316;PMS7003;67572;50.930;18.276;2023-04-25T05:32:52;3.00;3.00;2.50
78316;PMS7003;67572;50.930;18.276;2023-04-25T05:35:57;1.00;1.00;1.00
78316;PMS7003;67572;50.930;18.276;2023-04-25T05:39:01;0.25;0.00;0.00
78316;PMS7003;67572;50.930;18.276;2023-04-25T05:42:24;3.75;1.00;1.00
78316;PMS7003;67572;50.930;18.276;2023-04-25T05:45:47;3.25;1.50;1.00
78316;PMS7003;67572;50.930;18.276;2023-04-25T05:49:25;2.00;1.00;0.50
78316;PMS7003;67572;50.930;18.276;2023-04-25T05:52:59;6.25;6.00;4.50
78316;PMS7003;67572;50.930;18.276;2023-04-25T05:56:06;3.25;2.50;2.50
78316;PMS7003;67572;50.930;18.276;2023-04-25T05:59:10;3.00;3.00;3.00
78316;PMS7003;67572;50.930;18.276;2023-04-25T06:02:14;4.50;3.00;2.00
78316;PMS7003;67572;50.930;18.276;2023-04-25T06:05:18;2.50;2.50;2.00
78316;PMS7003;67572;50.930;18.276;2023-04-25T06:08:23;3.50;3.00;1.50
78316;PMS7003;67572;50.930;18.276;2023-04-25T06:11:27;4.50;4.50;3.00
78316;PMS7003;67572;50.930;18.276;2023-04-25T06:14:32;3.25;2.00;0.50
78316;PMS7003;67572;50.930;18.276;2023-04-25T06:17:35;3.00;3.00;3.00
78316;PMS7003;67572;50.930;18.276;2023-04-25T06:20:40;1.75;1.75;0.50
78316;PMS7003;67572;50.930;18.276;2023-04-25T06:23:45;6.25;6.25;3.25
78316;PMS7003;67572;50.930;18.276;2023-04-25T06:26:54;4.00;4.00;4.00
78316;PMS7003;67572;50.930;18.276;2023-04-25T06:29:58;6.75;3.75;2.50
78316;PMS7003;67572;50.930;18.276;2023-04-25T06:33:04;3.75;3.75;2.00
78316;PMS7003;67572;50.930;18.276;2023-04-25T06:36:08;6.75;3.75;2.50
78316;PMS7003;67572;50.930;18.276;2023-04-25T06:39:14;5.75;3.75;3.00
78316;PMS7003;67572;50.930;18.276;2023-04-25T06:42:18;10.50;7.00;6.00
78316;PMS7003;67572;50.930;18.276;2023-04-25T06:45:32;1.50;1.50;1.00
78316;PMS7003;67572;50.930;18.276;2023-04-25T06:48:35;1.00;1.00;0.50
78316;PMS7003;67572;50.930;18.276;2023-04-25T06:51:40;6.25;4.00;3.00
78316;PMS7003;67572;50.930;18.276;2023-04-25T06:54:45;6.00;6.00;6.00
78316;PMS7003;67572;50.930;18.276;2023-04-25T06:58:10;5.50;5.50;4.00
78316;PMS7003;67572;50.930;18.276;2023-04-25T07:01:37;6.00;4.00;3.00
78316;PMS7003;67572;50.930;18.276;2023-04-25T07:04:46;6.00;5.50;4.00
78316;PMS7003;67572;50.930;18.276;2023-04-25T07:07:50;6.50;6.50;5.50
78316;PMS7003;67572;50.930;18.276;2023-04-25T07:10:55;9.00;6.50;5.00
78316;PMS7003;67572;50.930;18.276;2023-04-25T07:13:58;8.50;8.50;6.00
78316;PMS7003;67572;50.930;18.276;2023-04-25T07:17:02;9.50;8.50;6.50
78316;PMS7003;67572;50.930;18.276;2023-04-25T07:20:09;8.75;4.25;2.00
78316;PMS7003;67572;50.930;18.276;2023-04-25T07:23:14;9.00;7.00;4.50
78316;PMS7003;67572;50.930;18.276;2023-04-25T07:26:19;5.50;5.50;3.00
78316;PMS7003;67572;50.930;18.276;2023-04-25T07:29:43;7.75;7.75;5.00
78316;PMS7003;67572;50.930;18.276;2023-04-25T07:32:46;10.50;8.75;6.50
78316;PMS7003;67572;50.930;18.276;2023-04-25T07:35:50;6.75;6.25;6.00
78316;PMS7003;67572;50.930;18.276;2023-04-25T07:38:55;6.25;6.25;6.00
78316;PMS7003;67572;50.930;18.276;2023-04-25T07:42:01;8.50;6.75;5.00
78316;PMS7003;67572;50.930;18.276;2023-04-25T07:45:06;12.25;8.50;6.00
78316;PMS7003;67572;50.930;18.276;2023-04-25T07:48:16;9.00;6.00;3.25
78316;PMS7003;67572;50.930;18.276;2023-04-25T07:51:21;6.75;4.00;3.75
78316;PMS7003;67572;50.930;18.276;2023-04-25T07:54:26;11.50;7.00;4.00
78316;PMS7003;67572;50.930;18.276;2023-04-25T07:57:38;6.00;5.00;4.50
78316;PMS7003;67572;50.930;18.276;2023-04-25T08:00:42;6.00;3.25;3.00
78316;PMS7003;67572;50.930;18.276;2023-04-25T08:04:12;1.00;1.00;0.00
78316;PMS7003;67572;50.930;18.276;2023-04-25T08:07:38;3.00;3.00;3.00
78316;PMS7003;67572;50.930;18.276;2023-04-25T08:10:42;3.50;3.50;3.50
78316;PMS7003;67572;50.930;18.276;2023-04-25T08:13:48;3.00;3.00;1.50
78316;PMS7003;67572;50.930;18.276;2023-04-25T08:16:52;3.00;3.00;1.00
78316;PMS7003;67572;50.930;18.276;2023-04-25T08:19:55;8.50;3.00;1.50
78316;PMS7003;67572;50.930;18.276;2023-04-25T08:23:04;1.00;1.00;1.00
78316;PMS7003;67572;50.930;18.276;2023-04-25T08:26:20;6.00;2.00;1.00
78316;PMS7003;67572;50.930;18.276;2023-04-25T08:29:26;4.00;3.00;3.00
78316;PMS7003;67572;50.930;18.276;2023-04-25T08:32:33;4.00;3.00;1.00
78316;PMS7003;67572;50.930;18.276;2023-04-25T08:35:52;4.00;4.00;3.00
78316;PMS7003;67572;50.930;18.276;2023-04-25T08:38:57;5.00;4.75;3.00
78316;PMS7003;67572;50.930;18.276;2023-04-25T08:42:04;3.50;3.00;1.00
78316;PMS7003;67572;50.930;18.276;2023-04-25T08:45:12;4.50;4.00;2.50
78316;PMS7003;67572;50.930;18.276;2023-04-25T08:48:18;6.50;5.00;3.00
78316;PMS7003;67572;50.930;18.276;2023-04-25T08:51:22;3.50;3.50;1.00
78316;PMS7003;67572;50.930;18.276;2023-04-25T08:54:27;6.25;6.25;3.00
78316;PMS7003;67572;50.930;18.276;2023-04-25T08:57:36;3.75;3.50;3.00
78316;PMS7003;67572;50.930;18.276;2023-04-25T09:00:43;3.00;3.00;1.00
78316;PMS7003;67572;50.930;18.276;2023-04-25T09:03:50;5.50;5.50;3.00
78316;PMS7003;67572;50.930;18.276;2023-04-25T09:06:54;3.50;3.50;3.00
78316;PMS7003;67572;50.930;18.276;2023-04-25T09:09:58;1.50;0.00;0.00
78316;PMS7003;67572;50.930;18.276;2023-04-25T09:13:05;4.00;3.00;1.00
78316;PMS7003;67572;50.930;18.276;2023-04-25T09:16:57;4.00;3.50;3.00
78316;PMS7003;67572;50.930;18.276;2023-04-25T09:20:13;4.00;4.00;3.00
78316;PMS7003;67572;50.930;18.276;2023-04-25T09:23:17;1.50;1.50;1.00
78316;PMS7003;67572;50.930;18.276;2023-04-25T09:26:22;5.50;3.25;2.00
78316;PMS7003;67572;50.930;18.276;2023-04-25T09:29:29;3.50;1.00;1.00
78316;PMS7003;67572;50.930;18.276;2023-04-25T09:32:35;3.00;3.00;3.00
78316;PMS7003;67572;50.930;18.276;2023-04-25T09:35:45;3.00;3.00;1.00
78316;PMS7003;67572;50.930;18.276;2023-04-25T09:39:12;3.25;3.25;2.50
78316;PMS7003;67572;50.930;18.276;2023-04-25T09:42:26;3.50;3.50;2.00
78316;PMS7003;67572;50.930;18.276;2023-04-25T09:45:30;4.00;4.00;1.00
78316;PMS7003;67572;50.930;18.276;2023-04-25T09:48:37;1.50;1.50;1.00
78316;PMS7003;67572;50.930;18.276;2023-04-25T09:51:47;3.25;1.00;0.75
78316;PMS7003;67572;50.930;18.276;2023-04-25T09:55:00;0.75;0.75;0.00
78316;PMS7003;67572;50.930;18.276;2023-04-25T09:58:07;8.25;6.00;3.25
78316;PMS7003;67572;50.930;18.276;2023-04-25T10:01:14;5.00;3.75;3.00
78316;PMS7003;67572;50.930;18.276;2023-04-25T10:04:35;4.25;4.25;3.25
78316;PMS7003;67572;50.930;18.276;2023-04-25T10:07:43;6.75;6.00;4.50
78316;PMS7003;67572;50.930;18.276;2023-04-25T10:10:50;9.50;8.50;4.00
78316;PMS7003;67572;50.930;18.276;2023-04-25T10:13:54;6.00;3.75;2.50
78316;PMS7003;67572;50.930;18.276;2023-04-25T10:16:59;2.75;2.50;2.50
78316;PMS7003;67572;50.930;18.276;2023-04-25T10:20:05;10.00;6.50;4.00
78316;PMS7003;67572;50.930;18.276;2023-04-25T10:23:13;4.50;4.50;3.75
78316;PMS7003;67572;50.930;18.276;2023-04-25T10:26:18;8.50;7.00;5.50
78316;PMS7003;67572;50.930;18.276;2023-04-25T10:29:24;7.00;7.00;6.25
78316;PMS7003;67572;50.930;18.276;2023-04-25T10:32:32;7.50;7.00;5.50
78316;PMS7003;67572;50.930;18.276;2023-04-25T10:35:37;6.75;6.75;5.00
78316;PMS7003;67572;50.930;18.276;2023-04-25T10:38:42;8.50;6.50;4.25
78316;PMS7003;67572;50.930;18.276;2023-04-25T10:41:47;1.00;1.00;1.00
78316;PMS7003;67572;50.930;18.276;2023-04-25T10:45:02;10.50;9.50;6.25
78316;PMS7003;67572;50.930;18.276;2023-04-25T10:51:32;9.00;6.50;6.00
78316;PMS7003;67572;50.930;18.276;2023-04-25T10:54:56;9.75;9.50;6.75
78316;PMS7003;67572;50.930;18.276;2023-04-25T10:58:03;10.00;6.25;4.00
78316;PMS7003;67572;50.930;18.276;2023-04-25T11:01:08;7.00;7.00;6.00
78316;PMS7003;67572;50.930;18.276;2023-04-25T11:04:22;9.00;7.00;7.00
78316;PMS7003;67572;50.930;18.276;2023-04-25T11:07:32;10.50;9.25;6.25
78316;PMS7003;67572;50.930;18.276;2023-04-25T11:10:40;9.25;6.75;5.00
78316;PMS7003;67572;50.930;18.276;2023-04-25T11:13:47;12.50;6.25;4.00
78316;PMS7003;67572;50.930;18.276;2023-04-25T11:16:52;11.50;9.75;6.00
78316;PMS7003;67572;50.930;18.276;2023-04-25T11:20:00;6.00;3.75;3.75
78316;PMS7003;67572;50.930;18.276;2023-04-25T11:23:07;9.75;8.50;7.00
78316;PMS7003;67572;50.930;18.276;2023-04-25T11:26:11;10.50;8.50;6.00
78316;PMS7003;67572;50.930;18.276;2023-04-25T11:29:15;9.00;8.75;6.00
78316;PMS7003;67572;50.930;18.276;2023-04-25T11:32:19;10.00;5.50;4.00
78316;PMS7003;67572;50.930;18.276;2023-04-25T11:35:25;9.00;9.00;6.25
78316;PMS7003;67572;50.930;18.276;2023-04-25T11:38:31;5.75;5.75;4.00
78316;PMS7003;67572;50.930;18.276;2023-04-25T11:41:37;6.25;6.25;2.00
78316;PMS7003;67572;50.930;18.276;2023-04-25T11:44:42;9.25;8.00;4.00
78316;PMS7003;67572;50.930;18.276;2023-04-25T11:47:46;11.50;9.75;6.00
78316;PMS7003;67572;50.930;18.276;2023-04-25T11:50:51;7.00;7.00;6.25
78316;PMS7003;67572;50.930;18.276;2023-04-25T11:53:59;6.75;5.00;4.00
78316;PMS7003;67572;50.930;18.276;2023-04-25T11:57:03;10.50;8.00;6.25
78316;PMS7003;67572;50.930;18.276;2023-04-25T12:00:11;9.50;8.00;7.00
78316;PMS7003;67572;50.930;18.276;2023-04-25T12:03:19;7.75;3.75;3.00
78316;PMS7003;67572;50.930;18.276;2023-04-25T12:06:28;7.00;7.00;6.75
78316;PMS7003;67572;50.930;18.276;2023-04-25T12:09:36;9.00;9.00;7.00
78316;PMS7003;67572;50.930;18.276;2023-04-25T12:12:42;10.50;9.00;7.00
78316;PMS7003;67572;50.930;18.276;2023-04-25T12:15:46;12.50;12.50;9.00
78316;PMS7003;67572;50.930;18.276;2023-04-25T12:18:55;10.50;5.00;3.00
78316;PMS7003;67572;50.930;18.276;2023-04-25T12:22:00;6.00;5.50;3.50
78316;PMS7003;67572;50.930;18.276;2023-04-25T12:25:06;8.50;8.50;6.50
78316;PMS7003;67572;50.930;18.276;2023-04-25T12:28:12;6.00;6.00;4.50
78316;PMS7003;67572;50.930;18.276;2023-04-25T12:31:17;9.00;9.00;4.00
78316;PMS7003;67572;50.930;18.276;2023-04-25T12:34:20;11.00;8.00;6.50
78316;PMS7003;67572;50.930;18.276;2023-04-25T12:37:25;7.25;5.75;4.50
78316;PMS7003;67572;50.930;18.276;2023-04-25T12:40:31;8.50;8.50;4.50
78316;PMS7003;67572;50.930;18.276;2023-04-25T12:43:35;4.00;4.00;4.00
78316;PMS7003;67572;50.930;18.276;2023-04-25T12:46:39;6.75;5.00;3.25
78316;PMS7003;67572;50.930;18.276;2023-04-25T12:49:43;7.00;7.00;4.00
78316;PMS7003;67572;50.930;18.276;2023-04-25T12:52:47;5.50;5.50;4.00
78316;PMS7003;67572;50.930;18.276;2023-04-25T12:55:52;9.75;9.25;5.00
78316;PMS7003;67572;50.930;18.276;2023-04-25T12:59:01;6.00;3.75;3.00
78316;PMS7003;67572;50.930;18.276;2023-04-25T13:02:06;6.50;4.50;4.00
78316;PMS7003;67572;50.930;18.276;2023-04-25T13:05:10;13.00;8.75;7.00
78316;PMS7003;67572;50.930;18.276;2023-04-25T13:08:14;5.00;3.75;3.00
78316;PMS7003;67572;50.930;18.276;2023-04-25T13:11:21;6.00;3.50;3.00
78316;PMS7003;67572;50.930;18.276;2023-04-25T13:14:25;3.00;3.00;3.00
78316;PMS7003;67572;50.930;18.276;2023-04-25T13:17:28;3.75;3.25;1.50
78316;PMS7003;67572;50.930;18.276;2023-04-25T13:20:32;4.00;3.00;3.00
78316;PMS7003;67572;50.930;18.276;2023-04-25T13:23:37;3.00;3.00;2.50
78316;PMS7003;67572;50.930;18.276;2023-04-25T13:26:42;2.00;2.00;1.00
78316;PMS7003;67572;50.930;18.276;2023-04-25T13:29:46;3.00;1.00;1.00
78316;PMS7003;67572;50.930;18.276;2023-04-25T13:32:49;7.00;6.00;3.00
78316;PMS7003;67572;50.930;18.276;2023-04-25T13:35:53;3.00;3.00;1.00
78316;PMS7003;67572;50.930;18.276;2023-04-25T13:38:58;1.00;1.00;0.00
78316;PMS7003;67572;50.930;18.276;2023-04-25T13:42:03;3.00;3.00;2.50
78316;PMS7003;67572;50.930;18.276;2023-04-25T13:45:07;0.00;0.00;0.00
78316;PMS7003;67572;50.930;18.276;2023-04-25T13:48:11;0.33;0.33;0.00
78316;PMS7003;67572;50.930;18.276;2023-04-25T13:51:15;3.50;3.50;2.00
78316;PMS7003;67572;50.930;18.276;2023-04-25T13:54:19;1.00;1.00;0.67
78316;PMS7003;67572;50.930;18.276;2023-04-25T13:57:24;1.00;1.00;1.00
78316;PMS7003;67572;50.930;18.276;2023-04-25T14:00:28;3.67;3.67;1.00
78316;PMS7003;67572;50.930;18.276;2023-04-25T14:03:31;1.00;1.00;1.00
78316;PMS7003;67572;50.930;18.276;2023-04-25T14:06:36;2.33;2.33;0.67
78316;PMS7003;67572;50.930;18.276;2023-04-25T14:09:40;2.33;0.67;0.00
78316;PMS7003;67572;50.930;18.276;2023-04-25T14:12:46;0.00;0.00;0.00
78316;PMS7003;67572;50.930;18.276;2023-04-25T14:15:54;1.00;1.00;1.00
78316;PMS7003;67572;50.930;18.276;2023-04-25T14:18:58;3.25;3.25;3.00
78316;PMS7003;67572;50.930;18.276;2023-04-25T14:22:02;7.00;5.50;3.00
78316;PMS7003;67572;50.930;18.276;2023-04-25T14:25:11;1.00;0.00;0.00
78316;PMS7003;67572;50.930;18.276;2023-04-25T14:28:17;1.00;1.00;1.00
78316;PMS7003;67572;50.930;18.276;2023-04-25T14:31:20;6.00;1.00;1.00
78316;PMS7003;67572;50.930;18.276;2023-04-25T14:34:25;1.25;1.25;0.75
78316;PMS7003;67572;50.930;18.276;2023-04-25T14:37:28;4.50;4.50;3.00
78316;PMS7003;67572;50.930;18.276;2023-04-25T14:40:32;3.00;3.00;3.00
78316;PMS7003;67572;50.930;18.276;2023-04-25T14:43:37;3.00;3.00;3.00
78316;PMS7003;67572;50.930;18.276;2023-04-25T14:46:41;5.50;3.25;2.00
78316;PMS7003;67572;50.930;18.276;2023-04-25T14:49:45;0.50;0.50;0.50
78316;PMS7003;67572;50.930;18.276;2023-04-25T14:52:56;3.50;1.00;0.50
78316;PMS7003;67572;50.930;18.276;2023-04-25T14:56:02;1.00;1.00;1.00
78316;PMS7003;67572;50.930;18.276;2023-04-25T14:59:11;5.00;3.00;3.00
78316;PMS7003;67572;50.930;18.276;2023-04-25T15:02:16;2.50;1.50;1.00
78316;PMS7003;67572;50.930;18.276;2023-04-25T15:05:20;1.00;1.00;1.00
78316;PMS7003;67572;50.930;18.276;2023-04-25T15:08:24;1.00;1.00;1.00
78316;PMS7003;67572;50.930;18.276;2023-04-25T15:11:27;1.00;1.00;1.00
78316;PMS7003;67572;50.930;18.276;2023-04-25T15:14:33;3.75;1.00;1.00
78316;PMS7003;67572;50.930;18.276;2023-04-25T15:17:37;4.00;4.00;1.00
78316;PMS7003;67572;50.930;18.276;2023-04-25T15:20:41;1.00;1.00;1.00
78316;PMS7003;67572;50.930;18.276;2023-04-25T15:23:44;4.50;3.75;1.00
78316;PMS7003;67572;50.930;18.276;2023-04-25T15:26:48;3.75;3.75;3.25
78316;PMS7003;67572;50.930;18.276;2023-04-25T15:29:53;3.50;2.00;2.00
78316;PMS7003;67572;50.930;18.276;2023-04-25T15:32:57;1.00;1.00;1.00
78316;PMS7003;67572;50.930;18.276;2023-04-25T15:36:01;5.50;5.50;4.00
78316;PMS7003;67572;50.930;18.276;2023-04-25T15:39:05;2.00;2.00;2.00
78316;PMS7003;67572;50.930;18.276;2023-04-25T15:42:08;4.00;3.00;1.00
78316;PMS7003;67572;50.930;18.276;2023-04-25T15:45:14;5.00;1.00;1.00
78316;PMS7003;67572;50.930;18.276;2023-04-25T15:48:19;4.50;4.00;3.00
78316;PMS7003;67572;50.930;18.276;2023-04-25T15:51:22;3.75;3.75;3.00
78316;PMS7003;67572;50.930;18.276;2023-04-25T15:54:26;3.25;3.00;1.00
78316;PMS7003;67572;50.930;18.276;2023-04-25T15:57:33;4.50;3.00;3.00
78316;PMS7003;67572;50.930;18.276;2023-04-25T16:00:44;4.50;3.25;3.00
78316;PMS7003;67572;50.930;18.276;2023-04-25T16:03:52;3.00;0.75;0.75
78316;PMS7003;67572;50.930;18.276;2023-04-25T16:06:59;3.25;2.50;1.00
78316;PMS7003;67572;50.930;18.276;2023-04-25T16:10:07;3.00;3.00;1.00
78316;PMS7003;67572;50.930;18.276;2023-04-25T16:13:14;3.00;3.00;0.75
78316;PMS7003;67572;50.930;18.276;2023-04-25T16:16:20;3.75;3.75;3.00
78316;PMS7003;67572;50.930;18.276;2023-04-25T16:19:24;1.00;1.00;1.00
78316;PMS7003;67572;50.930;18.276;2023-04-25T16:22:28;4.50;3.75;1.00
78316;PMS7003;67572;50.930;18.276;2023-04-25T16:25:32;4.50;1.75;1.00
78316;PMS7003;67572;50.930;18.276;2023-04-25T16:28:39;3.00;1.00;0.00
78316;PMS7003;67572;50.930;18.276;2023-04-25T16:31:45;2.50;1.00;1.00
78316;PMS7003;67572;50.930;18.276;2023-04-25T16:34:51;3.00;3.00;1.00
78316;PMS7003;67572;50.930;18.276;2023-04-25T16:37:57;4.00;4.00;3.00
78316;PMS7003;67572;50.930;18.276;2023-04-25T16:41:01;3.50;3.50;3.00
78316;PMS7003;67572;50.930;18.276;2023-04-25T16:44:07;6.00;5.25;3.00
78316;PMS7003;67572;50.930;18.276;2023-04-25T16:47:14;7.00;4.00;4.00
78316;PMS7003;67572;50.930;18.276;2023-04-25T16:50:21;7.00;7.00;6.00
78316;PMS7003;67572;50.930;18.276;2023-04-25T16:53:28;6.50;6.25;5.00
78316;PMS7003;67572;50.930;18.276;2023-04-25T16:56:34;6.75;4.50;4.50
78316;PMS7003;67572;50.930;18.276;2023-04-25T16:59:38;5.50;4.00;4.00
78316;PMS7003;67572;50.930;18.276;2023-04-25T17:02:49;6.25;6.25;6.25
78316;PMS7003;67572;50.930;18.276;2023-04-25T17:05:54;6.50;6.50;6.00
78316;PMS7003;67572;50.930;18.276;2023-04-25T17:08:58;10.50;10.50;7.00
78316;PMS7003;67572;50.930;18.276;2023-04-25T17:12:04;18.75;15.75;14.50
78316;PMS7003;67572;50.930;18.276;2023-04-25T17:15:11;17.50;14.50;12.50
78316;PMS7003;67572;50.930;18.276;2023-04-25T17:18:18;23.50;21.75;13.00
78316;PMS7003;67572;50.930;18.276;2023-04-25T17:21:24;15.75;15.75;12.75
78316;PMS7003;67572;50.930;18.276;2023-04-25T17:24:30;14.25;12.00;9.50
78316;PMS7003;67572;50.930;18.276;2023-04-25T17:27:34;9.00;9.00;6.75
78316;PMS7003;67572;50.930;18.276;2023-04-25T17:30:42;9.25;7.50;4.00
78316;PMS7003;67572;50.930;18.276;2023-04-25T17:33:48;9.75;9.00;7.00
78316;PMS7003;67572;50.930;18.276;2023-04-25T17:36:51;6.50;6.50;4.00
78316;PMS7003;67572;50.930;18.276;2023-04-25T17:39:55;1.00;1.00;0.00
78316;PMS7003;67572;50.930;18.276;2023-04-25T17:42:59;12.25;7.00;4.00
78316;PMS7003;67572;50.930;18.276;2023-04-25T17:46:02;3.25;3.25;3.00
78316;PMS7003;67572;50.930;18.276;2023-04-25T17:49:10;4.75;4.50;4.00
78316;PMS7003;67572;50.930;18.276;2023-04-25T17:52:15;6.50;6.00;5.00
78316;PMS7003;67572;50.930;18.276;2023-04-25T17:55:20;12.50;10.75;7.25
78316;PMS7003;67572;50.930;18.276;2023-04-25T17:58:24;9.75;6.00;3.75
78316;PMS7003;67572;50.930;18.276;2023-04-25T18:01:28;7.25;6.75;4.50